Aérodrome :
LOGIN :

S'inscrire | Disclaimer

   EN    FR    IT 

 










Légende :    VFR   VFR Marginal   IFR   IFR Intensif   IFR Très Intensif
Visi : 
Plafond : 
>= 8 km
>= 3000ft
5 à 8 km
1000 à 3000 ft
1500m à 5 km
500 à 1000 ft
800 à 1500m
200 à 500 ft
< 800m
< 200 ft
Symboles :   Orages  Brouillard  Fortes neiges  Fortes précipitations  Vent > 20 kt
SIGMETs :   Divers  Orages  Givrage  Turbulence  Onde Orograph.  Cendres Volcan.







- Altitude de l'aérodrome : 681 ft
- Code IATA : LBA
- Voir les cartes d'approche


EGNM - Leeds Bradford

DERNIER METAR :
  • 250020Z 11006KT 070V140 5000 BR FEW021 BKN043 12/12 Q1019

METARs EXPIRÉS :
  • 242350Z 11007KT 6000 FEW021 BKN043 13/12 Q1019
  • 242320Z 11006KT 6000 -RA FEW021 BKN043 13/12 Q1019
  • 242250Z 11007KT 8000 -RA BKN042 13/12 Q1019
  • 242220Z 10007KT 8000 -DZ BKN042 13/12 Q1019
  • 242150Z 09006KT 8000 -RADZ SCT042 13/12 Q1019

TAF TAF EGNM
Valide du 25 à 00h jusqu'au 26 à 00h UTC


242301Z 2500/2524 09005KT 6000 -RA BKN030
BECMG 2500/2503 BKN006
TEMPO 2500/2512 4000 RADZ BKN004
PROB40
TEMPO 2500/2512 0200 FG VV///
TEMPO 2512/2520 9999 NSW FEW006
TEMPO 2520/2524 4000 -RADZ BR BKN004
PROB30
TEMPO 2522/2524 0200 FG VV///
ATIS : +44 113 250 9696 (x2489)
Pas de NOTAMs connus pour ce terrain.



MET'MAP, la Météo Aéronautique d'un coup d'oeil ! - Copyright ORBIFLY Décembre 2007 - Disclaimer

ORBIFLY MET'MAP TEAM :

Programmation & Développement : Alexandra Zaïnal
Conception & Développement : Baudouin d'Aumeries
Co-Programmation & Développement : Marc-Olivier Méhu
Soutien technique & logistique : Manuel Goepfert

Contact : metmap@orbifly.com




SOURCES & CREDITS :

   NOAA